sensor_id;sensor_type;location;lat;lon;timestamp;temperature;humidity
4081;DHT22;2055;50.074;8.436;2024-03-22T00:00:30;7.90;99.90
4081;DHT22;2055;50.074;8.436;2024-03-22T00:02:56;7.80;99.90
4081;DHT22;2055;50.074;8.436;2024-03-22T00:05:21;7.80;99.90
4081;DHT22;2055;50.074;8.436;2024-03-22T00:07:47;7.90;99.90
4081;DHT22;2055;50.074;8.436;2024-03-22T00:10:13;7.70;99.90
4081;DHT22;2055;50.074;8.436;2024-03-22T00:12:39;7.50;99.90
4081;DHT22;2055;50.074;8.436;2024-03-22T00:15:05;7.40;99.90
4081;DHT22;2055;50.074;8.436;2024-03-22T00:17:31;7.20;99.90
4081;DHT22;2055;50.074;8.436;2024-03-22T00:19:57;6.90;99.90
4081;DHT22;2055;50.074;8.436;2024-03-22T00:22:22;6.80;99.90
4081;DHT22;2055;50.074;8.436;2024-03-22T00:24:48;6.80;99.90
4081;DHT22;2055;50.074;8.436;2024-03-22T00:27:13;6.80;99.90
4081;DHT22;2055;50.074;8.436;2024-03-22T00:29:39;6.70;99.90
4081;DHT22;2055;50.074;8.436;2024-03-22T00:32:05;6.60;99.90
4081;DHT22;2055;50.074;8.436;2024-03-22T00:34:32;6.60;99.90
4081;DHT22;2055;50.074;8.436;2024-03-22T00:36:58;6.50;1.00
4081;DHT22;2055;50.074;8.436;2024-03-22T00:39:24;6.50;1.00
4081;DHT22;2055;50.074;8.436;2024-03-22T00:41:49;6.40;1.00
4081;DHT22;2055;50.074;8.436;2024-03-22T00:44:15;6.40;1.00
4081;DHT22;2055;50.074;8.436;2024-03-22T00:46:40;6.50;1.00
4081;DHT22;2055;50.074;8.436;2024-03-22T00:49:05;6.50;1.00
4081;DHT22;2055;50.074;8.436;2024-03-22T00:51:31;6.70;1.00
4081;DHT22;2055;50.074;8.436;2024-03-22T00:53:56;6.60;1.00
4081;DHT22;2055;50.074;8.436;2024-03-22T00:56:22;6.50;1.00
4081;DHT22;2055;50.074;8.436;2024-03-22T00:58:48;6.30;1.00
4081;DHT22;2055;50.074;8.436;2024-03-22T01:01:13;6.50;99.90
4081;DHT22;2055;50.074;8.436;2024-03-22T01:03:39;6.50;99.90
4081;DHT22;2055;50.074;8.436;2024-03-22T01:06:04;6.50;99.90
4081;DHT22;2055;50.074;8.436;2024-03-22T01:08:30;6.40;99.90
4081;DHT22;2055;50.074;8.436;2024-03-22T01:10:56;6.60;99.90
4081;DHT22;2055;50.074;8.436;2024-03-22T01:13:21;6.50;99.90
4081;DHT22;2055;50.074;8.436;2024-03-22T01:15:46;6.70;99.90
4081;DHT22;2055;50.074;8.436;2024-03-22T01:18:12;6.70;99.90
4081;DHT22;2055;50.074;8.436;2024-03-22T01:20:38;6.70;99.90
4081;DHT22;2055;50.074;8.436;2024-03-22T01:23:03;6.90;99.90
4081;DHT22;2055;50.074;8.436;2024-03-22T01:25:30;7.00;99.90
4081;DHT22;2055;50.074;8.436;2024-03-22T01:27:56;7.10;99.90
4081;DHT22;2055;50.074;8.436;2024-03-22T01:30:21;7.10;99.90
4081;DHT22;2055;50.074;8.436;2024-03-22T01:32:47;6.80;99.90
4081;DHT22;2055;50.074;8.436;2024-03-22T01:35:12;6.70;99.90
4081;DHT22;2055;50.074;8.436;2024-03-22T01:37:38;6.50;99.90
4081;DHT22;2055;50.074;8.436;2024-03-22T01:40:04;6.20;99.90
4081;DHT22;2055;50.074;8.436;2024-03-22T01:42:30;6.20;99.90
4081;DHT22;2055;50.074;8.436;2024-03-22T01:44:56;6.10;1.00
4081;DHT22;2055;50.074;8.436;2024-03-22T01:47:21;6.10;99.90
4081;DHT22;2055;50.074;8.436;2024-03-22T01:49:49;6.20;1.00
4081;DHT22;2055;50.074;8.436;2024-03-22T01:52:15;6.10;99.90
4081;DHT22;2055;50.074;8.436;2024-03-22T01:54:41;6.00;99.90
4081;DHT22;2055;50.074;8.436;2024-03-22T01:57:06;5.90;99.90
4081;DHT22;2055;50.074;8.436;2024-03-22T01:59:33;6.00;1.00
4081;DHT22;2055;50.074;8.436;2024-03-22T02:01:59;5.80;1.00
4081;DHT22;2055;50.074;8.436;2024-03-22T02:04:24;5.60;1.00
4081;DHT22;2055;50.074;8.436;2024-03-22T02:06:50;5.90;99.90
4081;DHT22;2055;50.074;8.436;2024-03-22T02:09:15;6.10;99.90
4081;DHT22;2055;50.074;8.436;2024-03-22T02:11:42;6.10;99.90
4081;DHT22;2055;50.074;8.436;2024-03-22T02:14:08;6.10;99.90
4081;DHT22;2055;50.074;8.436;2024-03-22T02:16:33;6.20;1.00
4081;DHT22;2055;50.074;8.436;2024-03-22T02:18:59;6.00;1.00
4081;DHT22;2055;50.074;8.436;2024-03-22T02:21:24;6.10;99.90
4081;DHT22;2055;50.074;8.436;2024-03-22T02:23:50;6.00;99.90
4081;DHT22;2055;50.074;8.436;2024-03-22T02:26:15;5.90;99.90
4081;DHT22;2055;50.074;8.436;2024-03-22T02:28:41;6.00;99.90
4081;DHT22;2055;50.074;8.436;2024-03-22T02:31:06;5.80;99.90
4081;DHT22;2055;50.074;8.436;2024-03-22T02:33:32;5.60;99.90
4081;DHT22;2055;50.074;8.436;2024-03-22T02:35:58;5.60;99.90
4081;DHT22;2055;50.074;8.436;2024-03-22T02:38:24;5.50;99.90
4081;DHT22;2055;50.074;8.436;2024-03-22T02:40:52;5.50;1.00
4081;DHT22;2055;50.074;8.436;2024-03-22T02:43:18;5.50;1.00
4081;DHT22;2055;50.074;8.436;2024-03-22T02:45:44;5.40;1.00
4081;DHT22;2055;50.074;8.436;2024-03-22T02:48:11;5.20;1.00
4081;DHT22;2055;50.074;8.436;2024-03-22T02:50:37;5.20;1.00
4081;DHT22;2055;50.074;8.436;2024-03-22T02:53:03;5.50;1.00
4081;DHT22;2055;50.074;8.436;2024-03-22T02:55:29;5.60;1.00
4081;DHT22;2055;50.074;8.436;2024-03-22T02:57:56;6.10;1.00
4081;DHT22;2055;50.074;8.436;2024-03-22T03:00:21;5.90;1.00
4081;DHT22;2055;50.074;8.436;2024-03-22T03:02:47;6.00;1.00
4081;DHT22;2055;50.074;8.436;2024-03-22T03:05:12;6.10;1.00
4081;DHT22;2055;50.074;8.436;2024-03-22T03:07:38;6.10;1.00
4081;DHT22;2055;50.074;8.436;2024-03-22T03:10:04;6.10;1.00
4081;DHT22;2055;50.074;8.436;2024-03-22T03:12:30;6.10;1.00
4081;DHT22;2055;50.074;8.436;2024-03-22T03:14:55;6.10;1.00
4081;DHT22;2055;50.074;8.436;2024-03-22T03:17:21;6.10;1.00
4081;DHT22;2055;50.074;8.436;2024-03-22T03:19:47;6.20;1.00
4081;DHT22;2055;50.074;8.436;2024-03-22T03:22:13;6.30;1.00
4081;DHT22;2055;50.074;8.436;2024-03-22T03:24:38;6.30;1.00
4081;DHT22;2055;50.074;8.436;2024-03-22T03:27:04;6.40;1.00
4081;DHT22;2055;50.074;8.436;2024-03-22T03:29:29;6.40;1.00
4081;DHT22;2055;50.074;8.436;2024-03-22T03:31:55;6.50;1.00
4081;DHT22;2055;50.074;8.436;2024-03-22T03:34:20;6.40;1.00
4081;DHT22;2055;50.074;8.436;2024-03-22T03:36:47;6.40;1.00
4081;DHT22;2055;50.074;8.436;2024-03-22T03:39:13;6.30;1.00
4081;DHT22;2055;50.074;8.436;2024-03-22T03:41:39;6.30;1.00
4081;DHT22;2055;50.074;8.436;2024-03-22T03:44:04;6.30;1.00
4081;DHT22;2055;50.074;8.436;2024-03-22T03:46:30;6.30;1.00
4081;DHT22;2055;50.074;8.436;2024-03-22T03:48:55;6.30;99.90
4081;DHT22;2055;50.074;8.436;2024-03-22T03:51:21;6.30;1.00
4081;DHT22;2055;50.074;8.436;2024-03-22T03:53:47;6.30;1.00
4081;DHT22;2055;50.074;8.436;2024-03-22T03:56:12;6.20;1.00
4081;DHT22;2055;50.074;8.436;2024-03-22T03:58:38;6.20;1.00
4081;DHT22;2055;50.074;8.436;2024-03-22T04:01:09;6.30;1.00
4081;DHT22;2055;50.074;8.436;2024-03-22T04:03:35;6.40;1.00
4081;DHT22;2055;50.074;8.436;2024-03-22T04:06:01;6.20;1.00
4081;DHT22;2055;50.074;8.436;2024-03-22T04:08:27;6.10;1.00
4081;DHT22;2055;50.074;8.436;2024-03-22T04:10:56;6.30;1.00
4081;DHT22;2055;50.074;8.436;2024-03-22T04:13:25;6.40;1.00
4081;DHT22;2055;50.074;8.436;2024-03-22T04:15:52;6.60;1.00
4081;DHT22;2055;50.074;8.436;2024-03-22T04:18:17;6.70;1.00
4081;DHT22;2055;50.074;8.436;2024-03-22T04:20:52;6.80;1.00
4081;DHT22;2055;50.074;8.436;2024-03-22T04:23:18;7.20;1.00
4081;DHT22;2055;50.074;8.436;2024-03-22T04:25:52;7.20;1.00
4081;DHT22;2055;50.074;8.436;2024-03-22T04:28:18;7.20;1.00
4081;DHT22;2055;50.074;8.436;2024-03-22T04:30:43;7.30;1.00
4081;DHT22;2055;50.074;8.436;2024-03-22T04:33:09;7.40;1.00
4081;DHT22;2055;50.074;8.436;2024-03-22T04:35:34;7.30;1.00
4081;DHT22;2055;50.074;8.436;2024-03-22T04:38:00;7.30;1.00
4081;DHT22;2055;50.074;8.436;2024-03-22T04:40:25;7.30;1.00
4081;DHT22;2055;50.074;8.436;2024-03-22T04:42:52;7.40;1.00
4081;DHT22;2055;50.074;8.436;2024-03-22T04:45:17;7.40;1.00
4081;DHT22;2055;50.074;8.436;2024-03-22T04:47:43;7.50;1.00
4081;DHT22;2055;50.074;8.436;2024-03-22T04:50:09;7.40;99.90
4081;DHT22;2055;50.074;8.436;2024-03-22T04:52:35;7.40;99.90
4081;DHT22;2055;50.074;8.436;2024-03-22T04:55:00;7.40;1.00
4081;DHT22;2055;50.074;8.436;2024-03-22T04:57:27;7.50;99.90
4081;DHT22;2055;50.074;8.436;2024-03-22T04:59:53;7.40;99.90
4081;DHT22;2055;50.074;8.436;2024-03-22T05:02:18;7.40;99.90
4081;DHT22;2055;50.074;8.436;2024-03-22T05:04:44;7.40;99.90
4081;DHT22;2055;50.074;8.436;2024-03-22T05:07:09;7.30;99.90
4081;DHT22;2055;50.074;8.436;2024-03-22T05:09:35;7.40;99.90
4081;DHT22;2055;50.074;8.436;2024-03-22T05:12:00;7.30;99.90
4081;DHT22;2055;50.074;8.436;2024-03-22T05:14:26;7.20;99.90
4081;DHT22;2055;50.074;8.436;2024-03-22T05:16:51;7.10;99.90
4081;DHT22;2055;50.074;8.436;2024-03-22T05:19:17;7.10;99.90
4081;DHT22;2055;50.074;8.436;2024-03-22T05:21:43;7.00;99.90
4081;DHT22;2055;50.074;8.436;2024-03-22T05:24:08;7.00;99.90
4081;DHT22;2055;50.074;8.436;2024-03-22T05:26:34;7.00;99.90
4081;DHT22;2055;50.074;8.436;2024-03-22T05:29:02;6.90;99.90
4081;DHT22;2055;50.074;8.436;2024-03-22T05:31:28;7.10;99.90
4081;DHT22;2055;50.074;8.436;2024-03-22T05:33:54;7.10;99.90
4081;DHT22;2055;50.074;8.436;2024-03-22T05:36:19;7.20;99.90
4081;DHT22;2055;50.074;8.436;2024-03-22T05:38:45;7.30;99.90
4081;DHT22;2055;50.074;8.436;2024-03-22T05:41:11;7.30;99.90
4081;DHT22;2055;50.074;8.436;2024-03-22T05:43:36;7.40;99.90
4081;DHT22;2055;50.074;8.436;2024-03-22T05:46:02;7.50;99.90
4081;DHT22;2055;50.074;8.436;2024-03-22T05:48:27;7.80;99.90
4081;DHT22;2055;50.074;8.436;2024-03-22T05:50:53;7.80;99.90
4081;DHT22;2055;50.074;8.436;2024-03-22T05:53:19;7.90;99.90
4081;DHT22;2055;50.074;8.436;2024-03-22T05:55:44;8.00;99.90
4081;DHT22;2055;50.074;8.436;2024-03-22T05:58:10;8.10;99.90
4081;DHT22;2055;50.074;8.436;2024-03-22T06:00:35;8.20;99.90
4081;DHT22;2055;50.074;8.436;2024-03-22T06:03:01;8.30;99.90
4081;DHT22;2055;50.074;8.436;2024-03-22T06:05:27;8.30;99.90
4081;DHT22;2055;50.074;8.436;2024-03-22T06:07:52;8.60;99.90
4081;DHT22;2055;50.074;8.436;2024-03-22T06:10:18;8.60;99.90
4081;DHT22;2055;50.074;8.436;2024-03-22T06:12:43;8.70;99.90
4081;DHT22;2055;50.074;8.436;2024-03-22T06:15:12;8.90;99.90
4081;DHT22;2055;50.074;8.436;2024-03-22T06:17:38;9.00;99.90
4081;DHT22;2055;50.074;8.436;2024-03-22T06:20:03;9.00;99.90
4081;DHT22;2055;50.074;8.436;2024-03-22T06:22:30;9.00;99.90
4081;DHT22;2055;50.074;8.436;2024-03-22T06:24:56;9.10;99.90
4081;DHT22;2055;50.074;8.436;2024-03-22T06:27:22;9.60;99.90
4081;DHT22;2055;50.074;8.436;2024-03-22T06:29:47;9.20;99.90
4081;DHT22;2055;50.074;8.436;2024-03-22T06:32:13;9.20;99.90
4081;DHT22;2055;50.074;8.436;2024-03-22T06:34:38;9.30;99.90
4081;DHT22;2055;50.074;8.436;2024-03-22T06:37:04;9.40;99.90
4081;DHT22;2055;50.074;8.436;2024-03-22T06:39:29;9.30;99.90
4081;DHT22;2055;50.074;8.436;2024-03-22T06:41:55;9.60;99.90
4081;DHT22;2055;50.074;8.436;2024-03-22T06:44:21;9.70;99.90
4081;DHT22;2055;50.074;8.436;2024-03-22T06:46:47;9.90;99.90
4081;DHT22;2055;50.074;8.436;2024-03-22T06:49:12;9.70;99.90
4081;DHT22;2055;50.074;8.436;2024-03-22T06:51:38;9.70;99.90
4081;DHT22;2055;50.074;8.436;2024-03-22T06:54:03;10.10;99.90
4081;DHT22;2055;50.074;8.436;2024-03-22T06:56:29;10.00;99.90
4081;DHT22;2055;50.074;8.436;2024-03-22T06:58:54;10.10;99.90
4081;DHT22;2055;50.074;8.436;2024-03-22T07:01:20;10.10;99.90
4081;DHT22;2055;50.074;8.436;2024-03-22T07:03:46;10.20;99.90
4081;DHT22;2055;50.074;8.436;2024-03-22T07:06:13;10.20;99.90
4081;DHT22;2055;50.074;8.436;2024-03-22T07:08:39;10.20;99.90
4081;DHT22;2055;50.074;8.436;2024-03-22T07:11:07;10.30;99.90
4081;DHT22;2055;50.074;8.436;2024-03-22T07:13:34;10.40;99.90
4081;DHT22;2055;50.074;8.436;2024-03-22T07:15:59;10.50;99.90
4081;DHT22;2055;50.074;8.436;2024-03-22T07:18:25;10.60;99.90
4081;DHT22;2055;50.074;8.436;2024-03-22T07:20:51;10.70;99.90
4081;DHT22;2055;50.074;8.436;2024-03-22T07:23:17;10.80;99.90
4081;DHT22;2055;50.074;8.436;2024-03-22T07:25:42;11.10;99.90
4081;DHT22;2055;50.074;8.436;2024-03-22T07:28:11;10.80;99.90
4081;DHT22;2055;50.074;8.436;2024-03-22T07:30:36;10.90;99.90
4081;DHT22;2055;50.074;8.436;2024-03-22T07:33:03;10.80;99.90
4081;DHT22;2055;50.074;8.436;2024-03-22T07:35:29;11.40;99.90
4081;DHT22;2055;50.074;8.436;2024-03-22T07:37:54;10.80;99.90
4081;DHT22;2055;50.074;8.436;2024-03-22T07:40:19;10.90;99.90
4081;DHT22;2055;50.074;8.436;2024-03-22T07:42:45;10.90;99.90
4081;DHT22;2055;50.074;8.436;2024-03-22T07:45:11;12.00;99.90
4081;DHT22;2055;50.074;8.436;2024-03-22T07:47:36;11.30;99.90
4081;DHT22;2055;50.074;8.436;2024-03-22T07:50:03;11.30;99.90
4081;DHT22;2055;50.074;8.436;2024-03-22T07:52:28;11.40;99.90
4081;DHT22;2055;50.074;8.436;2024-03-22T07:54:54;11.50;99.90
4081;DHT22;2055;50.074;8.436;2024-03-22T07:57:19;11.70;99.90
4081;DHT22;2055;50.074;8.436;2024-03-22T07:59:45;11.60;99.90
4081;DHT22;2055;50.074;8.436;2024-03-22T08:02:11;11.60;99.90
4081;DHT22;2055;50.074;8.436;2024-03-22T08:04:37;11.70;99.90
4081;DHT22;2055;50.074;8.436;2024-03-22T08:07:03;11.70;99.90
4081;DHT22;2055;50.074;8.436;2024-03-22T08:09:28;11.50;99.90
4081;DHT22;2055;50.074;8.436;2024-03-22T08:11:54;11.40;99.90
4081;DHT22;2055;50.074;8.436;2024-03-22T08:14:19;11.40;99.90
4081;DHT22;2055;50.074;8.436;2024-03-22T08:16:45;11.40;99.90
4081;DHT22;2055;50.074;8.436;2024-03-22T08:19:10;11.40;99.90
4081;DHT22;2055;50.074;8.436;2024-03-22T08:21:36;11.30;99.90
4081;DHT22;2055;50.074;8.436;2024-03-22T08:24:02;11.10;99.90
4081;DHT22;2055;50.074;8.436;2024-03-22T08:26:27;11.20;99.90
4081;DHT22;2055;50.074;8.436;2024-03-22T08:28:53;11.30;99.90
4081;DHT22;2055;50.074;8.436;2024-03-22T08:31:18;11.40;99.90
4081;DHT22;2055;50.074;8.436;2024-03-22T08:33:51;11.70;99.90
4081;DHT22;2055;50.074;8.436;2024-03-22T08:36:16;11.80;99.90
4081;DHT22;2055;50.074;8.436;2024-03-22T08:38:42;11.70;99.90
4081;DHT22;2055;50.074;8.436;2024-03-22T08:41:07;11.70;99.90
4081;DHT22;2055;50.074;8.436;2024-03-22T08:43:33;12.00;99.90
4081;DHT22;2055;50.074;8.436;2024-03-22T08:45:58;12.10;99.90
4081;DHT22;2055;50.074;8.436;2024-03-22T08:48:24;11.90;99.90
4081;DHT22;2055;50.074;8.436;2024-03-22T08:50:49;12.20;99.90
4081;DHT22;2055;50.074;8.436;2024-03-22T08:53:15;12.40;99.90
4081;DHT22;2055;50.074;8.436;2024-03-22T08:55:47;12.60;99.90
4081;DHT22;2055;50.074;8.436;2024-03-22T08:58:14;12.50;99.90
4081;DHT22;2055;50.074;8.436;2024-03-22T09:00:41;12.70;99.90
4081;DHT22;2055;50.074;8.436;2024-03-22T09:03:06;13.00;99.90
4081;DHT22;2055;50.074;8.436;2024-03-22T09:05:32;12.90;99.90
4081;DHT22;2055;50.074;8.436;2024-03-22T09:07:59;13.10;99.90
4081;DHT22;2055;50.074;8.436;2024-03-22T09:10:24;13.20;99.90
4081;DHT22;2055;50.074;8.436;2024-03-22T09:12:50;13.30;99.90
4081;DHT22;2055;50.074;8.436;2024-03-22T09:15:16;13.60;99.90
4081;DHT22;2055;50.074;8.436;2024-03-22T09:17:42;13.70;99.90
4081;DHT22;2055;50.074;8.436;2024-03-22T09:20:07;12.90;99.90
4081;DHT22;2055;50.074;8.436;2024-03-22T09:22:33;12.80;99.90
4081;DHT22;2055;50.074;8.436;2024-03-22T09:24:59;12.40;99.90
4081;DHT22;2055;50.074;8.436;2024-03-22T09:27:25;12.50;99.90
4081;DHT22;2055;50.074;8.436;2024-03-22T09:29:50;12.50;99.90
4081;DHT22;2055;50.074;8.436;2024-03-22T09:32:16;12.60;99.90
4081;DHT22;2055;50.074;8.436;2024-03-22T09:34:41;12.70;99.90
4081;DHT22;2055;50.074;8.436;2024-03-22T09:37:08;12.80;99.90
4081;DHT22;2055;50.074;8.436;2024-03-22T09:39:33;12.90;99.90
4081;DHT22;2055;50.074;8.436;2024-03-22T09:42:01;12.90;99.90
4081;DHT22;2055;50.074;8.436;2024-03-22T09:44:28;12.80;99.90
4081;DHT22;2055;50.074;8.436;2024-03-22T09:46:55;13.20;99.90
4081;DHT22;2055;50.074;8.436;2024-03-22T09:49:22;13.00;99.90
4081;DHT22;2055;50.074;8.436;2024-03-22T09:51:48;13.60;99.90
4081;DHT22;2055;50.074;8.436;2024-03-22T09:54:16;13.40;99.90
4081;DHT22;2055;50.074;8.436;2024-03-22T09:56:42;13.80;99.90
4081;DHT22;2055;50.074;8.436;2024-03-22T09:59:09;13.80;99.90
4081;DHT22;2055;50.074;8.436;2024-03-22T10:04:02;13.40;99.90
4081;DHT22;2055;50.074;8.436;2024-03-22T10:06:29;13.30;99.90
4081;DHT22;2055;50.074;8.436;2024-03-22T10:09:01;13.70;99.90
4081;DHT22;2055;50.074;8.436;2024-03-22T10:11:27;14.60;99.90
4081;DHT22;2055;50.074;8.436;2024-03-22T10:13:53;15.20;99.90
4081;DHT22;2055;50.074;8.436;2024-03-22T10:16:20;14.90;99.90
4081;DHT22;2055;50.074;8.436;2024-03-22T10:18:46;15.30;99.90
4081;DHT22;2055;50.074;8.436;2024-03-22T10:21:17;14.90;99.90
4081;DHT22;2055;50.074;8.436;2024-03-22T10:23:46;14.50;99.90
4081;DHT22;2055;50.074;8.436;2024-03-22T10:26:14;14.30;99.90
4081;DHT22;2055;50.074;8.436;2024-03-22T10:28:46;14.60;99.90
4081;DHT22;2055;50.074;8.436;2024-03-22T10:31:12;14.40;99.90
4081;DHT22;2055;50.074;8.436;2024-03-22T10:33:38;14.40;99.90
4081;DHT22;2055;50.074;8.436;2024-03-22T10:36:06;15.00;99.90
4081;DHT22;2055;50.074;8.436;2024-03-22T10:38:32;15.00;99.90
4081;DHT22;2055;50.074;8.436;2024-03-22T10:40:59;15.00;99.90
4081;DHT22;2055;50.074;8.436;2024-03-22T10:43:25;15.10;99.90
4081;DHT22;2055;50.074;8.436;2024-03-22T10:45:51;14.90;99.90
4081;DHT22;2055;50.074;8.436;2024-03-22T10:48:23;14.80;99.90
4081;DHT22;2055;50.074;8.436;2024-03-22T10:50:51;15.20;99.90
4081;DHT22;2055;50.074;8.436;2024-03-22T10:53:24;15.10;99.90
4081;DHT22;2055;50.074;8.436;2024-03-22T10:55:51;15.90;99.90
4081;DHT22;2055;50.074;8.436;2024-03-22T10:58:26;17.10;99.90
4081;DHT22;2055;50.074;8.436;2024-03-22T11:00:52;18.00;99.90
4081;DHT22;2055;50.074;8.436;2024-03-22T11:03:25;18.00;99.90
4081;DHT22;2055;50.074;8.436;2024-03-22T11:05:56;18.10;99.90
4081;DHT22;2055;50.074;8.436;2024-03-22T11:08:29;17.70;99.90
4081;DHT22;2055;50.074;8.436;2024-03-22T11:10:56;18.60;99.90
4081;DHT22;2055;50.074;8.436;2024-03-22T11:13:22;18.90;99.90
4081;DHT22;2055;50.074;8.436;2024-03-22T11:15:52;17.50;99.90
4081;DHT22;2055;50.074;8.436;2024-03-22T11:18:17;17.40;99.90
4081;DHT22;2055;50.074;8.436;2024-03-22T11:20:43;17.20;99.90
4081;DHT22;2055;50.074;8.436;2024-03-22T11:23:10;17.00;99.90
4081;DHT22;2055;50.074;8.436;2024-03-22T11:25:36;17.30;99.90
4081;DHT22;2055;50.074;8.436;2024-03-22T11:28:01;17.70;99.90
4081;DHT22;2055;50.074;8.436;2024-03-22T11:30:32;17.40;99.90
4081;DHT22;2055;50.074;8.436;2024-03-22T11:33:01;17.10;99.90
4081;DHT22;2055;50.074;8.436;2024-03-22T11:35:26;18.30;99.90
4081;DHT22;2055;50.074;8.436;2024-03-22T11:37:52;17.90;99.90
4081;DHT22;2055;50.074;8.436;2024-03-22T11:40:18;18.70;99.90
4081;DHT22;2055;50.074;8.436;2024-03-22T11:42:46;18.80;99.90
4081;DHT22;2055;50.074;8.436;2024-03-22T11:45:14;18.20;99.90
4081;DHT22;2055;50.074;8.436;2024-03-22T11:47:40;17.80;99.90
4081;DHT22;2055;50.074;8.436;2024-03-22T11:50:06;17.60;99.90
4081;DHT22;2055;50.074;8.436;2024-03-22T11:52:32;17.90;99.90
4081;DHT22;2055;50.074;8.436;2024-03-22T11:54:58;17.60;99.90
4081;DHT22;2055;50.074;8.436;2024-03-22T11:57:24;18.00;99.90
4081;DHT22;2055;50.074;8.436;2024-03-22T11:59:50;17.70;99.90
4081;DHT22;2055;50.074;8.436;2024-03-22T12:02:17;17.80;99.90
4081;DHT22;2055;50.074;8.436;2024-03-22T12:04:45;17.60;99.90
4081;DHT22;2055;50.074;8.436;2024-03-22T12:07:12;18.00;99.90
4081;DHT22;2055;50.074;8.436;2024-03-22T12:09:39;19.40;99.90
4081;DHT22;2055;50.074;8.436;2024-03-22T12:12:06;20.60;99.90
4081;DHT22;2055;50.074;8.436;2024-03-22T12:14:33;22.00;99.90
4081;DHT22;2055;50.074;8.436;2024-03-22T12:16:58;22.10;99.90
4081;DHT22;2055;50.074;8.436;2024-03-22T12:19:24;21.30;99.90
4081;DHT22;2055;50.074;8.436;2024-03-22T12:21:49;21.50;99.90
4081;DHT22;2055;50.074;8.436;2024-03-22T12:24:15;20.50;99.90
4081;DHT22;2055;50.074;8.436;2024-03-22T12:26:40;19.80;99.90
4081;DHT22;2055;50.074;8.436;2024-03-22T12:29:06;20.10;99.90
4081;DHT22;2055;50.074;8.436;2024-03-22T12:31:33;20.00;99.90
4081;DHT22;2055;50.074;8.436;2024-03-22T12:33:58;19.10;99.90
4081;DHT22;2055;50.074;8.436;2024-03-22T12:36:24;18.80;99.90
4081;DHT22;2055;50.074;8.436;2024-03-22T12:38:50;17.90;99.90
4081;DHT22;2055;50.074;8.436;2024-03-22T12:41:16;18.40;99.90
4081;DHT22;2055;50.074;8.436;2024-03-22T12:43:41;18.50;99.90
4081;DHT22;2055;50.074;8.436;2024-03-22T12:46:08;17.90;99.90
4081;DHT22;2055;50.074;8.436;2024-03-22T12:48:34;17.50;99.90
4081;DHT22;2055;50.074;8.436;2024-03-22T12:51:00;18.10;99.90
4081;DHT22;2055;50.074;8.436;2024-03-22T12:53:25;18.20;99.90
4081;DHT22;2055;50.074;8.436;2024-03-22T12:55:51;18.30;99.90
4081;DHT22;2055;50.074;8.436;2024-03-22T12:58:17;17.80;99.90
4081;DHT22;2055;50.074;8.436;2024-03-22T13:00:42;18.00;99.90
4081;DHT22;2055;50.074;8.436;2024-03-22T13:03:08;18.30;99.90
4081;DHT22;2055;50.074;8.436;2024-03-22T13:05:35;18.50;99.90
4081;DHT22;2055;50.074;8.436;2024-03-22T13:08:01;18.40;99.90
4081;DHT22;2055;50.074;8.436;2024-03-22T13:10:26;18.50;99.90
4081;DHT22;2055;50.074;8.436;2024-03-22T13:12:52;17.90;99.90
4081;DHT22;2055;50.074;8.436;2024-03-22T13:15:17;17.70;99.90
4081;DHT22;2055;50.074;8.436;2024-03-22T13:17:43;17.30;99.90
4081;DHT22;2055;50.074;8.436;2024-03-22T13:20:09;17.20;99.90
4081;DHT22;2055;50.074;8.436;2024-03-22T13:22:38;17.00;99.90
4081;DHT22;2055;50.074;8.436;2024-03-22T13:25:05;16.80;99.90
4081;DHT22;2055;50.074;8.436;2024-03-22T13:27:33;16.80;99.90
4081;DHT22;2055;50.074;8.436;2024-03-22T13:30:00;16.90;99.90
4081;DHT22;2055;50.074;8.436;2024-03-22T13:32:25;17.00;99.90
4081;DHT22;2055;50.074;8.436;2024-03-22T13:34:51;16.90;99.90
4081;DHT22;2055;50.074;8.436;2024-03-22T13:37:16;16.80;99.90
4081;DHT22;2055;50.074;8.436;2024-03-22T13:39:42;16.90;99.90
4081;DHT22;2055;50.074;8.436;2024-03-22T13:42:07;16.90;99.90
4081;DHT22;2055;50.074;8.436;2024-03-22T13:44:34;17.10;99.90
4081;DHT22;2055;50.074;8.436;2024-03-22T13:47:00;17.10;99.90
4081;DHT22;2055;50.074;8.436;2024-03-22T13:49:25;16.80;99.90
4081;DHT22;2055;50.074;8.436;2024-03-22T13:51:51;16.80;99.90
4081;DHT22;2055;50.074;8.436;2024-03-22T13:54:16;16.80;99.90
4081;DHT22;2055;50.074;8.436;2024-03-22T13:56:42;16.70;99.90
4081;DHT22;2055;50.074;8.436;2024-03-22T13:59:08;16.60;99.90
4081;DHT22;2055;50.074;8.436;2024-03-22T14:01:37;16.50;99.90
4081;DHT22;2055;50.074;8.436;2024-03-22T14:04:06;16.50;99.90
4081;DHT22;2055;50.074;8.436;2024-03-22T14:06:32;16.50;99.90
4081;DHT22;2055;50.074;8.436;2024-03-22T14:08:58;17.70;99.90
4081;DHT22;2055;50.074;8.436;2024-03-22T14:11:27;16.60;99.90
4081;DHT22;2055;50.074;8.436;2024-03-22T14:13:53;16.60;99.90
4081;DHT22;2055;50.074;8.436;2024-03-22T14:16:19;16.60;99.90
4081;DHT22;2055;50.074;8.436;2024-03-22T14:18:44;16.50;99.90
4081;DHT22;2055;50.074;8.436;2024-03-22T14:21:09;16.50;99.90
4081;DHT22;2055;50.074;8.436;2024-03-22T14:23:37;16.70;99.90
4081;DHT22;2055;50.074;8.436;2024-03-22T14:26:02;16.60;99.90
4081;DHT22;2055;50.074;8.436;2024-03-22T14:28:28;16.70;99.90
4081;DHT22;2055;50.074;8.436;2024-03-22T14:30:53;16.80;99.90
4081;DHT22;2055;50.074;8.436;2024-03-22T14:33:19;17.00;99.90
4081;DHT22;2055;50.074;8.436;2024-03-22T14:35:45;17.00;99.90
4081;DHT22;2055;50.074;8.436;2024-03-22T14:38:11;16.90;99.90
4081;DHT22;2055;50.074;8.436;2024-03-22T14:40:36;17.00;99.90
4081;DHT22;2055;50.074;8.436;2024-03-22T14:43:03;16.80;99.90
4081;DHT22;2055;50.074;8.436;2024-03-22T14:45:30;17.40;99.90
4081;DHT22;2055;50.074;8.436;2024-03-22T14:47:55;16.70;99.90
4081;DHT22;2055;50.074;8.436;2024-03-22T14:50:21;16.90;99.90
4081;DHT22;2055;50.074;8.436;2024-03-22T14:52:49;16.90;99.90
4081;DHT22;2055;50.074;8.436;2024-03-22T14:55:14;16.90;99.90
4081;DHT22;2055;50.074;8.436;2024-03-22T14:57:40;16.80;99.90
4081;DHT22;2055;50.074;8.436;2024-03-22T15:00:06;16.70;99.90
4081;DHT22;2055;50.074;8.436;2024-03-22T15:02:36;16.70;99.90
4081;DHT22;2055;50.074;8.436;2024-03-22T15:05:01;16.70;99.90
4081;DHT22;2055;50.074;8.436;2024-03-22T15:07:27;16.80;99.90
4081;DHT22;2055;50.074;8.436;2024-03-22T15:09:53;16.80;99.90
4081;DHT22;2055;50.074;8.436;2024-03-22T15:12:19;17.00;99.90
4081;DHT22;2055;50.074;8.436;2024-03-22T15:14:44;17.20;99.90
4081;DHT22;2055;50.074;8.436;2024-03-22T15:17:10;17.40;99.90
4081;DHT22;2055;50.074;8.436;2024-03-22T15:19:37;17.10;99.90
4081;DHT22;2055;50.074;8.436;2024-03-22T15:22:02;17.60;99.90
4081;DHT22;2055;50.074;8.436;2024-03-22T15:24:29;17.90;99.90
4081;DHT22;2055;50.074;8.436;2024-03-22T15:26:55;18.40;99.90
4081;DHT22;2055;50.074;8.436;2024-03-22T15:29:20;18.90;99.90
4081;DHT22;2055;50.074;8.436;2024-03-22T15:31:46;19.00;99.90
4081;DHT22;2055;50.074;8.436;2024-03-22T15:34:12;18.40;99.90
4081;DHT22;2055;50.074;8.436;2024-03-22T15:36:38;18.30;99.90
4081;DHT22;2055;50.074;8.436;2024-03-22T15:39:03;18.80;99.90
4081;DHT22;2055;50.074;8.436;2024-03-22T15:41:30;19.00;99.90
4081;DHT22;2055;50.074;8.436;2024-03-22T15:43:56;18.20;99.90
4081;DHT22;2055;50.074;8.436;2024-03-22T15:46:21;18.10;99.90
4081;DHT22;2055;50.074;8.436;2024-03-22T15:48:47;18.00;99.90
4081;DHT22;2055;50.074;8.436;2024-03-22T15:51:12;18.00;99.90
4081;DHT22;2055;50.074;8.436;2024-03-22T15:53:39;17.80;99.90
4081;DHT22;2055;50.074;8.436;2024-03-22T15:56:05;19.20;99.90
4081;DHT22;2055;50.074;8.436;2024-03-22T15:58:30;19.00;99.90
4081;DHT22;2055;50.074;8.436;2024-03-22T16:00:56;19.20;99.90
4081;DHT22;2055;50.074;8.436;2024-03-22T16:03:22;18.70;99.90
4081;DHT22;2055;50.074;8.436;2024-03-22T16:05:51;18.70;99.90